sensor_id;sensor_type;location;lat;lon;timestamp;P1;durP1;ratioP1;P2;durP2;ratioP2
52964;SDS011;42923;53.220;6.528;2022-09-09T00:00:09;25.42;;;14.88;;
52964;SDS011;42923;53.220;6.528;2022-09-09T00:02:38;24.90;;;14.95;;
52964;SDS011;42923;53.220;6.528;2022-09-09T00:07:58;24.98;;;14.98;;
52964;SDS011;42923;53.220;6.528;2022-09-09T00:13:00;27.63;;;16.00;;
52964;SDS011;42923;53.220;6.528;2022-09-09T00:18:12;30.47;;;16.60;;
52964;SDS011;42923;53.220;6.528;2022-09-09T00:20:58;27.73;;;16.33;;
52964;SDS011;42923;53.220;6.528;2022-09-09T00:23:35;46.28;;;19.45;;
52964;SDS011;42923;53.220;6.528;2022-09-09T00:28:39;38.63;;;19.92;;
52964;SDS011;42923;53.220;6.528;2022-09-09T00:31:16;31.40;;;18.10;;
52964;SDS011;42923;53.220;6.528;2022-09-09T00:33:47;30.60;;;18.40;;
52964;SDS011;42923;53.220;6.528;2022-09-09T00:36:15;38.40;;;19.38;;
52964;SDS011;42923;53.220;6.528;2022-09-09T00:38:48;31.55;;;18.63;;
52964;SDS011;42923;53.220;6.528;2022-09-09T00:41:22;39.28;;;18.60;;
52964;SDS011;42923;53.220;6.528;2022-09-09T00:43:55;36.55;;;20.58;;
52964;SDS011;42923;53.220;6.528;2022-09-09T00:57:30;38.88;;;18.30;;
52964;SDS011;42923;53.220;6.528;2022-09-09T01:02:31;32.97;;;18.48;;
52964;SDS011;42923;53.220;6.528;2022-09-09T01:07:55;43.92;;;20.70;;
52964;SDS011;42923;53.220;6.528;2022-09-09T01:13:25;53.90;;;21.52;;
52964;SDS011;42923;53.220;6.528;2022-09-09T01:16:00;36.05;;;20.17;;
52964;SDS011;42923;53.220;6.528;2022-09-09T01:18:54;35.05;;;18.13;;
52964;SDS011;42923;53.220;6.528;2022-09-09T01:27:12;42.00;;;20.00;;
52964;SDS011;42923;53.220;6.528;2022-09-09T01:29:40;40.88;;;20.25;;
52964;SDS011;42923;53.220;6.528;2022-09-09T01:35:03;41.23;;;19.67;;
52964;SDS011;42923;53.220;6.528;2022-09-09T01:37:31;38.53;;;19.48;;
52964;SDS011;42923;53.220;6.528;2022-09-09T01:39:58;38.92;;;18.48;;
52964;SDS011;42923;53.220;6.528;2022-09-09T01:42:24;38.70;;;19.05;;
52964;SDS011;42923;53.220;6.528;2022-09-09T01:44:50;36.42;;;20.48;;
52964;SDS011;42923;53.220;6.528;2022-09-09T01:47:16;37.97;;;20.40;;
52964;SDS011;42923;53.220;6.528;2022-09-09T01:49:59;35.22;;;19.38;;
52964;SDS011;42923;53.220;6.528;2022-09-09T01:52:28;33.03;;;19.67;;
52964;SDS011;42923;53.220;6.528;2022-09-09T01:54:55;40.88;;;21.02;;
52964;SDS011;42923;53.220;6.528;2022-09-09T01:57:26;42.63;;;20.98;;
52964;SDS011;42923;53.220;6.528;2022-09-09T02:00:10;41.63;;;20.52;;
52964;SDS011;42923;53.220;6.528;2022-09-09T02:02:48;43.22;;;21.42;;
52964;SDS011;42923;53.220;6.528;2022-09-09T02:05:38;43.72;;;20.55;;
52964;SDS011;42923;53.220;6.528;2022-09-09T02:08:20;45.60;;;22.42;;
52964;SDS011;42923;53.220;6.528;2022-09-09T02:11:10;50.85;;;24.70;;
52964;SDS011;42923;53.220;6.528;2022-09-09T02:13:43;52.60;;;23.65;;
52964;SDS011;42923;53.220;6.528;2022-09-09T02:21:28;56.65;;;23.48;;
52964;SDS011;42923;53.220;6.528;2022-09-09T02:23:56;49.35;;;22.85;;
52964;SDS011;42923;53.220;6.528;2022-09-09T02:26:26;48.63;;;23.92;;
52964;SDS011;42923;53.220;6.528;2022-09-09T02:28:58;44.70;;;22.88;;
52964;SDS011;42923;53.220;6.528;2022-09-09T02:31:27;59.95;;;24.05;;
52964;SDS011;42923;53.220;6.528;2022-09-09T02:33:59;40.55;;;21.30;;
52964;SDS011;42923;53.220;6.528;2022-09-09T02:36:29;60.15;;;24.38;;
52964;SDS011;42923;53.220;6.528;2022-09-09T02:38:58;59.25;;;23.67;;
52964;SDS011;42923;53.220;6.528;2022-09-09T02:41:32;71.90;;;26.35;;
52964;SDS011;42923;53.220;6.528;2022-09-09T02:43:59;47.10;;;22.70;;
52964;SDS011;42923;53.220;6.528;2022-09-09T02:54:23;52.85;;;22.92;;
52964;SDS011;42923;53.220;6.528;2022-09-09T02:56:55;46.07;;;22.83;;
52964;SDS011;42923;53.220;6.528;2022-09-09T02:59:37;64.22;;;24.40;;
52964;SDS011;42923;53.220;6.528;2022-09-09T03:02:04;84.72;;;26.30;;
52964;SDS011;42923;53.220;6.528;2022-09-09T03:04:30;79.43;;;25.77;;
52964;SDS011;42923;53.220;6.528;2022-09-09T03:06:57;41.22;;;22.00;;
52964;SDS011;42923;53.220;6.528;2022-09-09T03:09:23;50.55;;;22.23;;
52964;SDS011;42923;53.220;6.528;2022-09-09T03:11:50;49.92;;;23.48;;
52964;SDS011;42923;53.220;6.528;2022-09-09T03:14:16;62.90;;;23.10;;
52964;SDS011;42923;53.220;6.528;2022-09-09T03:16:46;48.40;;;22.98;;
52964;SDS011;42923;53.220;6.528;2022-09-09T03:19:13;52.83;;;22.55;;
52964;SDS011;42923;53.220;6.528;2022-09-09T03:21:40;55.38;;;23.13;;
52964;SDS011;42923;53.220;6.528;2022-09-09T03:24:05;53.40;;;21.80;;
52964;SDS011;42923;53.220;6.528;2022-09-09T03:26:32;53.63;;;22.88;;
52964;SDS011;42923;53.220;6.528;2022-09-09T03:28:59;40.08;;;20.48;;
52964;SDS011;42923;53.220;6.528;2022-09-09T03:31:26;80.05;;;24.48;;
52964;SDS011;42923;53.220;6.528;2022-09-09T03:33:56;47.47;;;22.05;;
52964;SDS011;42923;53.220;6.528;2022-09-09T03:36:24;46.63;;;22.00;;
52964;SDS011;42923;53.220;6.528;2022-09-09T03:38:52;39.95;;;20.27;;
52964;SDS011;42923;53.220;6.528;2022-09-09T03:41:23;44.03;;;21.55;;
52964;SDS011;42923;53.220;6.528;2022-09-09T03:43:53;35.67;;;19.52;;
52964;SDS011;42923;53.220;6.528;2022-09-09T03:46:20;37.85;;;18.75;;
52964;SDS011;42923;53.220;6.528;2022-09-09T03:48:49;42.67;;;19.20;;
52964;SDS011;42923;53.220;6.528;2022-09-09T03:51:17;41.33;;;18.58;;
52964;SDS011;42923;53.220;6.528;2022-09-09T03:53:44;38.00;;;17.88;;
52964;SDS011;42923;53.220;6.528;2022-09-09T03:56:11;37.05;;;17.90;;
52964;SDS011;42923;53.220;6.528;2022-09-09T03:58:37;42.83;;;17.48;;
52964;SDS011;42923;53.220;6.528;2022-09-09T04:01:10;41.88;;;16.60;;
52964;SDS011;42923;53.220;6.528;2022-09-09T04:03:42;28.52;;;16.02;;
52964;SDS011;42923;53.220;6.528;2022-09-09T04:06:09;40.15;;;15.55;;
52964;SDS011;42923;53.220;6.528;2022-09-09T04:08:36;34.92;;;14.60;;
52964;SDS011;42923;53.220;6.528;2022-09-09T04:11:04;30.60;;;12.90;;
52964;SDS011;42923;53.220;6.528;2022-09-09T04:13:35;30.98;;;13.55;;
52964;SDS011;42923;53.220;6.528;2022-09-09T04:16:09;27.95;;;12.45;;
52964;SDS011;42923;53.220;6.528;2022-09-09T04:18:36;16.10;;;10.55;;
52964;SDS011;42923;53.220;6.528;2022-09-09T04:21:02;22.23;;;11.55;;
52964;SDS011;42923;53.220;6.528;2022-09-09T04:23:30;29.10;;;12.73;;
52964;SDS011;42923;53.220;6.528;2022-09-09T04:25:58;21.42;;;10.52;;
52964;SDS011;42923;53.220;6.528;2022-09-09T04:28:26;21.05;;;10.15;;
52964;SDS011;42923;53.220;6.528;2022-09-09T04:30:53;21.13;;;10.02;;
52964;SDS011;42923;53.220;6.528;2022-09-09T04:33:20;21.63;;;10.20;;
52964;SDS011;42923;53.220;6.528;2022-09-09T04:35:49;17.35;;;9.38;;
52964;SDS011;42923;53.220;6.528;2022-09-09T04:38:17;14.35;;;8.45;;
52964;SDS011;42923;53.220;6.528;2022-09-09T04:40:46;18.05;;;9.27;;
52964;SDS011;42923;53.220;6.528;2022-09-09T04:43:13;18.50;;;8.75;;
52964;SDS011;42923;53.220;6.528;2022-09-09T04:45:43;19.98;;;9.30;;
52964;SDS011;42923;53.220;6.528;2022-09-09T04:48:12;22.30;;;10.40;;
52964;SDS011;42923;53.220;6.528;2022-09-09T04:50:37;23.33;;;10.02;;
52964;SDS011;42923;53.220;6.528;2022-09-09T04:53:04;16.85;;;8.98;;
52964;SDS011;42923;53.220;6.528;2022-09-09T04:55:31;16.05;;;8.88;;
52964;SDS011;42923;53.220;6.528;2022-09-09T04:57:57;15.75;;;8.52;;
52964;SDS011;42923;53.220;6.528;2022-09-09T05:00:24;24.05;;;10.43;;
52964;SDS011;42923;53.220;6.528;2022-09-09T05:02:50;18.90;;;9.95;;
52964;SDS011;42923;53.220;6.528;2022-09-09T05:05:17;29.08;;;12.15;;
52964;SDS011;42923;53.220;6.528;2022-09-09T05:07:45;19.90;;;11.43;;
52964;SDS011;42923;53.220;6.528;2022-09-09T05:10:13;23.02;;;11.07;;
52964;SDS011;42923;53.220;6.528;2022-09-09T05:12:41;21.73;;;10.85;;
52964;SDS011;42923;53.220;6.528;2022-09-09T05:15:07;21.20;;;11.25;;
52964;SDS011;42923;53.220;6.528;2022-09-09T05:17:33;18.48;;;10.98;;
52964;SDS011;42923;53.220;6.528;2022-09-09T05:19:59;18.58;;;11.38;;
52964;SDS011;42923;53.220;6.528;2022-09-09T05:22:25;21.92;;;11.13;;
52964;SDS011;42923;53.220;6.528;2022-09-09T05:24:52;23.60;;;12.27;;
52964;SDS011;42923;53.220;6.528;2022-09-09T05:27:18;21.95;;;11.38;;
52964;SDS011;42923;53.220;6.528;2022-09-09T05:29:48;24.67;;;11.82;;
52964;SDS011;42923;53.220;6.528;2022-09-09T05:32:14;25.02;;;11.75;;
52964;SDS011;42923;53.220;6.528;2022-09-09T05:34:43;39.22;;;13.65;;
52964;SDS011;42923;53.220;6.528;2022-09-09T05:37:08;26.23;;;12.95;;
52964;SDS011;42923;53.220;6.528;2022-09-09T05:39:36;26.08;;;12.98;;
52964;SDS011;42923;53.220;6.528;2022-09-09T05:42:02;23.95;;;12.20;;
52964;SDS011;42923;53.220;6.528;2022-09-09T05:44:30;28.13;;;14.05;;
52964;SDS011;42923;53.220;6.528;2022-09-09T05:46:57;29.38;;;14.02;;
52964;SDS011;42923;53.220;6.528;2022-09-09T05:49:23;26.45;;;13.95;;
52964;SDS011;42923;53.220;6.528;2022-09-09T05:51:49;30.25;;;14.77;;
52964;SDS011;42923;53.220;6.528;2022-09-09T05:54:17;23.40;;;14.25;;
52964;SDS011;42923;53.220;6.528;2022-09-09T05:56:47;28.00;;;13.77;;
52964;SDS011;42923;53.220;6.528;2022-09-09T05:59:15;21.52;;;14.23;;
52964;SDS011;42923;53.220;6.528;2022-09-09T06:01:40;26.55;;;13.98;;
52964;SDS011;42923;53.220;6.528;2022-09-09T06:04:11;34.03;;;13.85;;
52964;SDS011;42923;53.220;6.528;2022-09-09T06:06:39;26.67;;;13.05;;
52964;SDS011;42923;53.220;6.528;2022-09-09T06:09:12;25.33;;;14.30;;
52964;SDS011;42923;53.220;6.528;2022-09-09T06:11:40;26.05;;;13.40;;
52964;SDS011;42923;53.220;6.528;2022-09-09T06:14:07;34.53;;;15.63;;
52964;SDS011;42923;53.220;6.528;2022-09-09T06:16:34;24.98;;;14.70;;
52964;SDS011;42923;53.220;6.528;2022-09-09T06:19:04;34.63;;;14.18;;
52964;SDS011;42923;53.220;6.528;2022-09-09T06:21:31;27.38;;;14.73;;
52964;SDS011;42923;53.220;6.528;2022-09-09T06:24:00;30.83;;;13.88;;
52964;SDS011;42923;53.220;6.528;2022-09-09T06:26:28;19.02;;;13.25;;
52964;SDS011;42923;53.220;6.528;2022-09-09T06:29:00;21.15;;;11.48;;
52964;SDS011;42923;53.220;6.528;2022-09-09T06:31:29;21.30;;;13.60;;
52964;SDS011;42923;53.220;6.528;2022-09-09T06:34:00;20.80;;;13.18;;
52964;SDS011;42923;53.220;6.528;2022-09-09T06:36:29;15.32;;;10.88;;
52964;SDS011;42923;53.220;6.528;2022-09-09T06:38:57;17.95;;;11.13;;
52964;SDS011;42923;53.220;6.528;2022-09-09T06:41:24;18.58;;;12.15;;
52964;SDS011;42923;53.220;6.528;2022-09-09T06:43:55;23.05;;;12.57;;
52964;SDS011;42923;53.220;6.528;2022-09-09T06:46:29;21.48;;;11.68;;
52964;SDS011;42923;53.220;6.528;2022-09-09T06:48:58;16.23;;;11.15;;
52964;SDS011;42923;53.220;6.528;2022-09-09T06:51:29;14.57;;;10.48;;
52964;SDS011;42923;53.220;6.528;2022-09-09T06:53:57;12.88;;;9.85;;
52964;SDS011;42923;53.220;6.528;2022-09-09T06:59:05;13.32;;;10.27;;
52964;SDS011;42923;53.220;6.528;2022-09-09T07:01:35;16.30;;;11.10;;
52964;SDS011;42923;53.220;6.528;2022-09-09T07:04:05;12.25;;;9.98;;
52964;SDS011;42923;53.220;6.528;2022-09-09T07:06:36;11.05;;;9.20;;
52964;SDS011;42923;53.220;6.528;2022-09-09T07:09:04;13.25;;;9.68;;
52964;SDS011;42923;53.220;6.528;2022-09-09T07:11:42;13.60;;;9.18;;
52964;SDS011;42923;53.220;6.528;2022-09-09T07:14:10;16.30;;;9.35;;
52964;SDS011;42923;53.220;6.528;2022-09-09T07:16:40;12.07;;;9.13;;
52964;SDS011;42923;53.220;6.528;2022-09-09T07:19:10;13.82;;;8.93;;
52964;SDS011;42923;53.220;6.528;2022-09-09T07:21:37;12.75;;;8.18;;
52964;SDS011;42923;53.220;6.528;2022-09-09T07:24:03;10.20;;;8.48;;
52964;SDS011;42923;53.220;6.528;2022-09-09T07:26:32;12.00;;;7.65;;
52964;SDS011;42923;53.220;6.528;2022-09-09T07:29:00;16.08;;;9.25;;
52964;SDS011;42923;53.220;6.528;2022-09-09T07:31:32;13.40;;;9.20;;
52964;SDS011;42923;53.220;6.528;2022-09-09T07:34:00;10.85;;;8.45;;
52964;SDS011;42923;53.220;6.528;2022-09-09T07:36:30;12.13;;;8.95;;
52964;SDS011;42923;53.220;6.528;2022-09-09T07:39:04;9.70;;;7.72;;
52964;SDS011;42923;53.220;6.528;2022-09-09T07:41:34;8.43;;;7.43;;
52964;SDS011;42923;53.220;6.528;2022-09-09T07:44:06;12.32;;;7.90;;
52964;SDS011;42923;53.220;6.528;2022-09-09T07:46:34;10.43;;;7.97;;
52964;SDS011;42923;53.220;6.528;2022-09-09T07:49:01;8.07;;;7.13;;
52964;SDS011;42923;53.220;6.528;2022-09-09T07:51:35;16.40;;;7.18;;
52964;SDS011;42923;53.220;6.528;2022-09-09T07:54:04;9.88;;;7.40;;
52964;SDS011;42923;53.220;6.528;2022-09-09T07:56:33;11.80;;;7.80;;
52964;SDS011;42923;53.220;6.528;2022-09-09T07:58:59;9.55;;;7.32;;
52964;SDS011;42923;53.220;6.528;2022-09-09T08:01:30;9.35;;;7.15;;
52964;SDS011;42923;53.220;6.528;2022-09-09T08:04:00;11.57;;;7.07;;
52964;SDS011;42923;53.220;6.528;2022-09-09T08:06:30;9.55;;;6.25;;
52964;SDS011;42923;53.220;6.528;2022-09-09T08:08:58;7.78;;;6.25;;
52964;SDS011;42923;53.220;6.528;2022-09-09T08:11:25;11.63;;;7.18;;
52964;SDS011;42923;53.220;6.528;2022-09-09T08:13:52;12.60;;;6.97;;
52964;SDS011;42923;53.220;6.528;2022-09-09T08:16:20;9.75;;;6.22;;
52964;SDS011;42923;53.220;6.528;2022-09-09T08:18:55;7.78;;;6.53;;
52964;SDS011;42923;53.220;6.528;2022-09-09T08:21:23;6.07;;;5.38;;
52964;SDS011;42923;53.220;6.528;2022-09-09T08:23:52;6.50;;;5.75;;
52964;SDS011;42923;53.220;6.528;2022-09-09T08:26:21;8.13;;;5.75;;
52964;SDS011;42923;53.220;6.528;2022-09-09T08:28:49;16.30;;;7.15;;
52964;SDS011;42923;53.220;6.528;2022-09-09T08:31:22;8.82;;;5.50;;
52964;SDS011;42923;53.220;6.528;2022-09-09T08:33:52;7.28;;;5.80;;
52964;SDS011;42923;53.220;6.528;2022-09-09T08:36:20;8.50;;;5.28;;
52964;SDS011;42923;53.220;6.528;2022-09-09T08:38:47;7.35;;;4.95;;
52964;SDS011;42923;53.220;6.528;2022-09-09T08:47:13;8.02;;;5.55;;
52964;SDS011;42923;53.220;6.528;2022-09-09T08:58:31;7.35;;;4.45;;
52964;SDS011;42923;53.220;6.528;2022-09-09T09:01:13;9.25;;;4.93;;
52964;SDS011;42923;53.220;6.528;2022-09-09T09:06:49;9.80;;;5.45;;
52964;SDS011;42923;53.220;6.528;2022-09-09T09:09:31;11.48;;;5.47;;
52964;SDS011;42923;53.220;6.528;2022-09-09T09:12:10;8.70;;;5.22;;
52964;SDS011;42923;53.220;6.528;2022-09-09T09:14:45;7.75;;;4.50;;
52964;SDS011;42923;53.220;6.528;2022-09-09T09:17:14;9.85;;;4.75;;
52964;SDS011;42923;53.220;6.528;2022-09-09T09:19:44;10.68;;;4.55;;
52964;SDS011;42923;53.220;6.528;2022-09-09T09:30:38;11.30;;;3.95;;
52964;SDS011;42923;53.220;6.528;2022-09-09T09:33:11;8.20;;;3.85;;
52964;SDS011;42923;53.220;6.528;2022-09-09T09:35:43;6.70;;;3.95;;
52964;SDS011;42923;53.220;6.528;2022-09-09T09:38:21;7.45;;;4.55;;
52964;SDS011;42923;53.220;6.528;2022-09-09T09:40:57;13.95;;;5.20;;
52964;SDS011;42923;53.220;6.528;2022-09-09T09:43:26;9.00;;;4.07;;
52964;SDS011;42923;53.220;6.528;2022-09-09T09:45:55;6.80;;;3.50;;
52964;SDS011;42923;53.220;6.528;2022-09-09T09:48:23;12.02;;;3.97;;
52964;SDS011;42923;53.220;6.528;2022-09-09T09:51:00;10.27;;;4.22;;
52964;SDS011;42923;53.220;6.528;2022-09-09T09:53:33;10.63;;;3.40;;
52964;SDS011;42923;53.220;6.528;2022-09-09T09:56:02;8.10;;;3.45;;
52964;SDS011;42923;53.220;6.528;2022-09-09T09:58:38;12.23;;;3.80;;
52964;SDS011;42923;53.220;6.528;2022-09-09T10:01:19;9.20;;;3.70;;
52964;SDS011;42923;53.220;6.528;2022-09-09T10:03:52;8.15;;;3.22;;
52964;SDS011;42923;53.220;6.528;2022-09-09T10:06:32;10.80;;;3.58;;
52964;SDS011;42923;53.220;6.528;2022-09-09T10:09:00;5.90;;;3.30;;
52964;SDS011;42923;53.220;6.528;2022-09-09T10:11:43;15.18;;;3.72;;
52964;SDS011;42923;53.220;6.528;2022-09-09T10:14:30;8.95;;;3.78;;
52964;SDS011;42923;53.220;6.528;2022-09-09T10:17:10;10.50;;;3.85;;
52964;SDS011;42923;53.220;6.528;2022-09-09T10:22:34;7.95;;;3.35;;
52964;SDS011;42923;53.220;6.528;2022-09-09T10:31:17;13.13;;;3.17;;
52964;SDS011;42923;53.220;6.528;2022-09-09T10:33:51;12.27;;;3.10;;
52964;SDS011;42923;53.220;6.528;2022-09-09T10:36:23;6.30;;;2.80;;
52964;SDS011;42923;53.220;6.528;2022-09-09T10:47:40;5.60;;;2.75;;
52964;SDS011;42923;53.220;6.528;2022-09-09T10:50:18;7.03;;;2.10;;
52964;SDS011;42923;53.220;6.528;2022-09-09T10:56:02;6.32;;;2.22;;
52964;SDS011;42923;53.220;6.528;2022-09-09T10:58:38;7.80;;;1.92;;
52964;SDS011;42923;53.220;6.528;2022-09-09T11:01:26;6.90;;;1.75;;
52964;SDS011;42923;53.220;6.528;2022-09-09T11:04:01;6.57;;;2.10;;
52964;SDS011;42923;53.220;6.528;2022-09-09T11:06:36;6.53;;;2.03;;
52964;SDS011;42923;53.220;6.528;2022-09-09T11:09:08;6.47;;;1.95;;
52964;SDS011;42923;53.220;6.528;2022-09-09T11:11:50;36.85;;;3.17;;
52964;SDS011;42923;53.220;6.528;2022-09-09T11:14:21;6.88;;;1.80;;
52964;SDS011;42923;53.220;6.528;2022-09-09T11:16:54;4.55;;;1.75;;
52964;SDS011;42923;53.220;6.528;2022-09-09T11:19:24;6.85;;;2.17;;
52964;SDS011;42923;53.220;6.528;2022-09-09T11:21:52;7.07;;;1.48;;
52964;SDS011;42923;53.220;6.528;2022-09-09T11:24:33;7.25;;;1.92;;
52964;SDS011;42923;53.220;6.528;2022-09-09T11:27:09;9.05;;;1.90;;
52964;SDS011;42923;53.220;6.528;2022-09-09T11:29:52;6.28;;;1.65;;
52964;SDS011;42923;53.220;6.528;2022-09-09T11:32:34;7.28;;;1.80;;
52964;SDS011;42923;53.220;6.528;2022-09-09T11:44:08;7.82;;;1.98;;
52964;SDS011;42923;53.220;6.528;2022-09-09T11:46:16;5.30;;;1.67;;
52964;SDS011;42923;53.220;6.528;2022-09-09T11:48:45;7.95;;;2.35;;
52964;SDS011;42923;53.220;6.528;2022-09-09T11:53:56;6.65;;;1.92;;
52964;SDS011;42923;53.220;6.528;2022-09-09T11:56:42;5.85;;;1.73;;
52964;SDS011;42923;53.220;6.528;2022-09-09T11:59:23;5.43;;;2.15;;
52964;SDS011;42923;53.220;6.528;2022-09-09T12:01:54;6.65;;;2.00;;
52964;SDS011;42923;53.220;6.528;2022-09-09T12:09:27;7.90;;;2.97;;
52964;SDS011;42923;53.220;6.528;2022-09-09T12:14:36;5.43;;;2.30;;
52964;SDS011;42923;53.220;6.528;2022-09-09T12:17:21;5.57;;;1.70;;
52964;SDS011;42923;53.220;6.528;2022-09-09T12:20:03;6.97;;;1.92;;
52964;SDS011;42923;53.220;6.528;2022-09-09T12:25:48;5.75;;;1.80;;
52964;SDS011;42923;53.220;6.528;2022-09-09T12:31:22;4.72;;;1.77;;
52964;SDS011;42923;53.220;6.528;2022-09-09T12:34:04;13.40;;;2.20;;
52964;SDS011;42923;53.220;6.528;2022-09-09T12:36:36;5.70;;;2.10;;
52964;SDS011;42923;53.220;6.528;2022-09-09T12:39:10;7.00;;;1.90;;
52964;SDS011;42923;53.220;6.528;2022-09-09T12:41:53;6.40;;;1.77;;
52964;SDS011;42923;53.220;6.528;2022-09-09T12:44:25;7.10;;;1.77;;
52964;SDS011;42923;53.220;6.528;2022-09-09T12:46:54;6.68;;;1.77;;
52964;SDS011;42923;53.220;6.528;2022-09-09T12:49:37;6.43;;;1.83;;
52964;SDS011;42923;53.220;6.528;2022-09-09T12:52:06;5.10;;;2.05;;
52964;SDS011;42923;53.220;6.528;2022-09-09T12:54:37;4.45;;;1.73;;
52964;SDS011;42923;53.220;6.528;2022-09-09T12:57:12;6.00;;;1.50;;
52964;SDS011;42923;53.220;6.528;2022-09-09T12:59:42;5.65;;;1.70;;
52964;SDS011;42923;53.220;6.528;2022-09-09T13:02:23;3.60;;;1.35;;
52964;SDS011;42923;53.220;6.528;2022-09-09T13:04:50;5.38;;;1.95;;
52964;SDS011;42923;53.220;6.528;2022-09-09T13:07:17;4.53;;;1.90;;
52964;SDS011;42923;53.220;6.528;2022-09-09T13:09:45;6.45;;;2.47;;
52964;SDS011;42923;53.220;6.528;2022-09-09T13:12:16;5.32;;;1.55;;
52964;SDS011;42923;53.220;6.528;2022-09-09T13:14:45;7.80;;;1.88;;
52964;SDS011;42923;53.220;6.528;2022-09-09T13:17:19;7.07;;;2.30;;
52964;SDS011;42923;53.220;6.528;2022-09-09T13:19:49;7.00;;;2.10;;
52964;SDS011;42923;53.220;6.528;2022-09-09T13:22:34;8.32;;;1.75;;
52964;SDS011;42923;53.220;6.528;2022-09-09T13:25:04;6.78;;;2.22;;
52964;SDS011;42923;53.220;6.528;2022-09-09T13:27:32;5.38;;;1.67;;
52964;SDS011;42923;53.220;6.528;2022-09-09T13:30:19;5.60;;;2.17;;
52964;SDS011;42923;53.220;6.528;2022-09-09T13:33:01;8.82;;;2.05;;
52964;SDS011;42923;53.220;6.528;2022-09-09T13:35:54;6.97;;;1.70;;
52964;SDS011;42923;53.220;6.528;2022-09-09T13:38:30;5.45;;;1.52;;
52964;SDS011;42923;53.220;6.528;2022-09-09T13:41:08;6.53;;;1.88;;
52964;SDS011;42923;53.220;6.528;2022-09-09T13:43:36;4.78;;;1.67;;
52964;SDS011;42923;53.220;6.528;2022-09-09T13:46:24;5.13;;;1.63;;
52964;SDS011;42923;53.220;6.528;2022-09-09T13:51:41;7.43;;;1.40;;
52964;SDS011;42923;53.220;6.528;2022-09-09T13:54:12;6.35;;;1.65;;
52964;SDS011;42923;53.220;6.528;2022-09-09T13:56:40;6.55;;;2.15;;
52964;SDS011;42923;53.220;6.528;2022-09-09T13:59:14;4.75;;;1.77;;
52964;SDS011;42923;53.220;6.528;2022-09-09T14:01:41;6.03;;;1.67;;
52964;SDS011;42923;53.220;6.528;2022-09-09T14:04:08;5.93;;;1.80;;
52964;SDS011;42923;53.220;6.528;2022-09-09T14:06:35;6.78;;;1.65;;
52964;SDS011;42923;53.220;6.528;2022-09-09T14:09:05;3.67;;;1.35;;
52964;SDS011;42923;53.220;6.528;2022-09-09T14:11:32;4.35;;;1.88;;
52964;SDS011;42923;53.220;6.528;2022-09-09T14:13:57;4.00;;;1.52;;
52964;SDS011;42923;53.220;6.528;2022-09-09T14:16:23;4.95;;;1.52;;
52964;SDS011;42923;53.220;6.528;2022-09-09T14:18:52;4.32;;;1.58;;
52964;SDS011;42923;53.220;6.528;2022-09-09T14:21:18;6.22;;;1.42;;
52964;SDS011;42923;53.220;6.528;2022-09-09T14:23:43;6.85;;;1.63;;
52964;SDS011;42923;53.220;6.528;2022-09-09T14:26:09;3.38;;;1.45;;
52964;SDS011;42923;53.220;6.528;2022-09-09T14:28:35;7.30;;;1.50;;
52964;SDS011;42923;53.220;6.528;2022-09-09T14:31:02;3.72;;;1.30;;
52964;SDS011;42923;53.220;6.528;2022-09-09T14:33:29;4.50;;;1.23;;
52964;SDS011;42923;53.220;6.528;2022-09-09T14:35:56;6.00;;;1.83;;
52964;SDS011;42923;53.220;6.528;2022-09-09T14:38:28;2.88;;;1.30;;
52964;SDS011;42923;53.220;6.528;2022-09-09T14:40:55;4.22;;;1.60;;
52964;SDS011;42923;53.220;6.528;2022-09-09T14:43:21;4.13;;;1.02;;
52964;SDS011;42923;53.220;6.528;2022-09-09T14:45:47;3.80;;;1.17;;
52964;SDS011;42923;53.220;6.528;2022-09-09T14:48:13;3.35;;;1.35;;
52964;SDS011;42923;53.220;6.528;2022-09-09T14:50:40;4.32;;;1.38;;
52964;SDS011;42923;53.220;6.528;2022-09-09T14:53:07;3.83;;;0.90;;
52964;SDS011;42923;53.220;6.528;2022-09-09T14:55:34;5.43;;;0.98;;
52964;SDS011;42923;53.220;6.528;2022-09-09T14:58:00;19.63;;;1.15;;
52964;SDS011;42923;53.220;6.528;2022-09-09T15:00:25;4.50;;;0.95;;
52964;SDS011;42923;53.220;6.528;2022-09-09T15:02:52;1.35;;;0.73;;
52964;SDS011;42923;53.220;6.528;2022-09-09T15:05:18;2.53;;;0.95;;
52964;SDS011;42923;53.220;6.528;2022-09-09T15:07:44;1.55;;;0.75;;
52964;SDS011;42923;53.220;6.528;2022-09-09T15:10:10;1.92;;;1.00;;
52964;SDS011;42923;53.220;6.528;2022-09-09T15:12:36;3.22;;;0.73;;
52964;SDS011;42923;53.220;6.528;2022-09-09T15:15:04;1.05;;;0.60;;
52964;SDS011;42923;53.220;6.528;2022-09-09T15:17:30;3.80;;;0.90;;
52964;SDS011;42923;53.220;6.528;2022-09-09T15:19:56;1.50;;;0.70;;
52964;SDS011;42923;53.220;6.528;2022-09-09T15:22:22;6.05;;;1.40;;
52964;SDS011;42923;53.220;6.528;2022-09-09T15:24:49;6.50;;;0.93;;
52964;SDS011;42923;53.220;6.528;2022-09-09T15:27:15;1.35;;;1.10;;
52964;SDS011;42923;53.220;6.528;2022-09-09T15:29:41;3.63;;;1.05;;
52964;SDS011;42923;53.220;6.528;2022-09-09T15:32:07;28.30;;;2.67;;
52964;SDS011;42923;53.220;6.528;2022-09-09T15:34:33;4.38;;;1.38;;
52964;SDS011;42923;53.220;6.528;2022-09-09T15:36:59;3.22;;;1.25;;
52964;SDS011;42923;53.220;6.528;2022-09-09T15:39:25;6.00;;;1.40;;
52964;SDS011;42923;53.220;6.528;2022-09-09T15:41:51;3.60;;;1.15;;
52964;SDS011;42923;53.220;6.528;2022-09-09T15:44:17;5.15;;;1.23;;
52964;SDS011;42923;53.220;6.528;2022-09-09T15:46:44;5.22;;;1.50;;
52964;SDS011;42923;53.220;6.528;2022-09-09T15:49:15;4.63;;;1.25;;
52964;SDS011;42923;53.220;6.528;2022-09-09T15:51:43;4.70;;;1.30;;
52964;SDS011;42923;53.220;6.528;2022-09-09T15:54:12;3.72;;;1.15;;
52964;SDS011;42923;53.220;6.528;2022-09-09T15:56:43;4.22;;;1.10;;
52964;SDS011;42923;53.220;6.528;2022-09-09T15:59:10;2.17;;;0.90;;
52964;SDS011;42923;53.220;6.528;2022-09-09T16:01:36;2.95;;;1.20;;
52964;SDS011;42923;53.220;6.528;2022-09-09T16:04:04;1.65;;;1.10;;
52964;SDS011;42923;53.220;6.528;2022-09-09T16:06:31;1.80;;;0.98;;
52964;SDS011;42923;53.220;6.528;2022-09-09T16:08:58;2.85;;;1.08;;
52964;SDS011;42923;53.220;6.528;2022-09-09T16:11:27;4.70;;;1.10;;
52964;SDS011;42923;53.220;6.528;2022-09-09T16:13:54;2.63;;;0.93;;
52964;SDS011;42923;53.220;6.528;2022-09-09T16:16:22;2.10;;;0.73;;
52964;SDS011;42923;53.220;6.528;2022-09-09T16:18:50;2.40;;;1.02;;
52964;SDS011;42923;53.220;6.528;2022-09-09T16:21:19;2.25;;;1.00;;
52964;SDS011;42923;53.220;6.528;2022-09-09T16:23:46;4.50;;;1.30;;
52964;SDS011;42923;53.220;6.528;2022-09-09T16:26:14;3.10;;;1.10;;
52964;SDS011;42923;53.220;6.528;2022-09-09T16:28:41;4.18;;;1.13;;
52964;SDS011;42923;53.220;6.528;2022-09-09T16:31:08;3.90;;;1.10;;
52964;SDS011;42923;53.220;6.528;2022-09-09T16:33:39;3.28;;;1.02;;
52964;SDS011;42923;53.220;6.528;2022-09-09T16:36:06;2.90;;;1.10;;
52964;SDS011;42923;53.220;6.528;2022-09-09T16:38:37;7.35;;;1.50;;
52964;SDS011;42923;53.220;6.528;2022-09-09T16:41:04;4.00;;;1.52;;
52964;SDS011;42923;53.220;6.528;2022-09-09T16:43:31;2.72;;;1.23;;
52964;SDS011;42923;53.220;6.528;2022-09-09T16:45:58;3.83;;;1.50;;
52964;SDS011;42923;53.220;6.528;2022-09-09T16:48:26;3.58;;;1.55;;
52964;SDS011;42923;53.220;6.528;2022-09-09T16:51:01;4.63;;;1.52;;
52964;SDS011;42923;53.220;6.528;2022-09-09T16:53:31;5.07;;;1.80;;
52964;SDS011;42923;53.220;6.528;2022-09-09T16:55:58;18.23;;;1.63;;
52964;SDS011;42923;53.220;6.528;2022-09-09T16:58:30;5.22;;;1.38;;
52964;SDS011;42923;53.220;6.528;2022-09-09T17:01:00;3.72;;;1.52;;
52964;SDS011;42923;53.220;6.528;2022-09-09T17:03:28;2.60;;;1.20;;